createdAt,value
2022-10-29T00:00:17.608Z,10.66
2022-10-29T00:01:17.632Z,10.66
2022-10-29T00:02:17.581Z,10.61
2022-10-29T00:03:17.573Z,10.61
2022-10-29T00:04:17.678Z,10.61
2022-10-29T00:05:17.695Z,10.60
2022-10-29T00:06:17.679Z,10.59
2022-10-29T00:07:17.511Z,10.60
2022-10-29T00:08:17.811Z,10.59
2022-10-29T00:09:17.585Z,10.59
2022-10-29T00:10:17.500Z,10.59
2022-10-29T00:11:17.599Z,10.56
2022-10-29T00:12:17.494Z,10.59
2022-10-29T00:13:17.516Z,10.59
2022-10-29T00:14:17.449Z,10.56
2022-10-29T00:15:17.447Z,10.59
2022-10-29T00:16:17.505Z,10.59
2022-10-29T00:17:17.397Z,10.59
2022-10-29T00:18:17.563Z,10.53
2022-10-29T00:19:17.667Z,10.56
2022-10-29T00:20:17.679Z,10.56
2022-10-29T00:21:17.366Z,10.59
2022-10-29T00:22:17.396Z,10.56
2022-10-29T00:23:17.328Z,10.60
2022-10-29T00:24:17.331Z,10.56
2022-10-29T00:25:17.319Z,10.59
2022-10-29T00:26:17.318Z,10.60
2022-10-29T00:27:17.277Z,10.59
2022-10-29T00:28:17.308Z,10.60
2022-10-29T00:29:17.267Z,10.61
2022-10-29T00:30:17.947Z,10.64
2022-10-29T00:31:18.090Z,10.63
2022-10-29T00:32:17.291Z,10.63
2022-10-29T00:33:17.215Z,10.64
2022-10-29T00:34:17.218Z,10.63
2022-10-29T00:35:17.211Z,10.63
2022-10-29T00:36:17.368Z,10.63
2022-10-29T00:37:17.277Z,10.63
2022-10-29T00:38:17.523Z,10.61
2022-10-29T00:39:17.490Z,10.61
2022-10-29T00:40:17.598Z,10.63
2022-10-29T00:41:17.120Z,10.61
2022-10-29T00:42:17.449Z,10.61
2022-10-29T00:43:17.209Z,10.64
2022-10-29T00:44:17.127Z,10.67
2022-10-29T00:45:17.090Z,10.66
2022-10-29T00:46:17.092Z,10.67
2022-10-29T00:47:17.049Z,10.67
2022-10-29T00:48:17.057Z,10.67
2022-10-29T00:49:17.054Z,10.68
2022-10-29T00:50:17.037Z,10.68
2022-10-29T00:51:16.998Z,10.73
2022-10-29T00:52:17.020Z,10.73
2022-10-29T00:55:46.059Z,10.79
2022-10-29T00:57:40.501Z,10.82
2022-10-29T00:58:40.500Z,10.84
2022-10-29T00:59:40.536Z,10.86
2022-10-29T01:00:40.471Z,10.86
2022-10-29T01:01:40.507Z,10.85
2022-10-29T01:02:40.552Z,10.86
2022-10-29T01:03:40.708Z,10.85
2022-10-29T01:04:40.430Z,10.86
2022-10-29T01:05:40.410Z,10.86
2022-10-29T01:06:40.412Z,10.85
2022-10-29T01:07:40.389Z,10.86
2022-10-29T01:08:40.410Z,10.86
2022-10-29T01:09:40.360Z,10.84
2022-10-29T01:10:40.371Z,10.84
2022-10-29T01:11:40.340Z,10.84
2022-10-29T01:12:40.341Z,10.84
2022-10-29T01:13:40.570Z,10.81
2022-10-29T01:14:40.319Z,10.81
2022-10-29T01:15:40.369Z,10.81
2022-10-29T01:16:40.310Z,10.79
2022-10-29T01:17:40.280Z,10.78
2022-10-29T01:18:40.350Z,10.79
2022-10-29T01:19:40.253Z,10.78
2022-10-29T01:20:40.252Z,10.78
2022-10-29T01:21:40.229Z,10.78
2022-10-29T01:22:40.232Z,10.78
2022-10-29T01:23:40.644Z,10.74
2022-10-29T01:24:40.208Z,10.74
2022-10-29T01:25:40.183Z,10.70
2022-10-29T01:26:40.182Z,10.70
2022-10-29T01:27:40.989Z,10.70
2022-10-29T01:28:40.897Z,10.68
2022-10-29T01:29:40.139Z,10.66
2022-10-29T01:30:40.140Z,10.64
2022-10-29T01:31:40.110Z,10.64
2022-10-29T01:32:40.118Z,10.61
2022-10-29T01:33:40.089Z,10.60
2022-10-29T01:34:40.110Z,10.59
2022-10-29T01:35:40.079Z,10.59
2022-10-29T01:36:40.069Z,10.53
2022-10-29T01:37:40.045Z,10.55
2022-10-29T01:38:40.039Z,10.52
2022-10-29T01:39:40.026Z,10.52
2022-10-29T01:40:40.034Z,10.52
2022-10-29T01:41:40.248Z,10.48
2022-10-29T01:42:40.005Z,10.48
2022-10-29T01:43:39.969Z,10.47
2022-10-29T01:44:39.970Z,10.44
2022-10-29T01:45:40.031Z,10.42
2022-10-29T01:46:39.951Z,10.42
2022-10-29T01:47:48.823Z,10.42
2022-10-29T01:48:40.203Z,10.44
2022-10-29T01:49:40.101Z,10.42
2022-10-29T01:50:42.692Z,10.44
2022-10-29T01:51:39.896Z,10.44
2022-10-29T01:52:39.904Z,10.47
2022-10-29T01:53:39.905Z,10.47
2022-10-29T01:54:39.873Z,10.52
2022-10-29T01:55:39.855Z,10.53
2022-10-29T01:56:39.855Z,10.55
2022-10-29T01:57:39.836Z,10.59
2022-10-29T01:58:39.828Z,10.59
2022-10-29T01:59:55.003Z,10.59
2022-10-29T02:00:40.854Z,10.59
2022-10-29T02:01:39.794Z,10.60
2022-10-29T02:02:43.247Z,10.56
2022-10-29T02:03:40.765Z,10.56
2022-10-29T02:04:39.815Z,10.52
2022-10-29T02:05:39.834Z,10.51
2022-10-29T02:06:39.739Z,10.47
2022-10-29T02:07:39.719Z,10.44
2022-10-29T02:08:39.830Z,10.42
2022-10-29T02:09:39.918Z,10.42
2022-10-29T02:10:39.691Z,10.40
2022-10-29T02:11:39.754Z,10.40
2022-10-29T02:12:39.665Z,10.38
2022-10-29T02:13:39.644Z,10.38
2022-10-29T02:14:39.656Z,10.34
2022-10-29T02:15:39.603Z,10.34
2022-10-29T02:16:39.648Z,10.32
2022-10-29T02:17:39.609Z,10.32
2022-10-29T02:18:39.903Z,10.32
2022-10-29T02:19:39.561Z,10.29
2022-10-29T02:20:39.572Z,10.27
2022-10-29T02:21:39.583Z,10.23
2022-10-29T02:22:39.548Z,10.23
2022-10-29T02:23:39.624Z,10.22
2022-10-29T02:24:39.515Z,10.17
2022-10-29T02:25:39.565Z,10.15
2022-10-29T02:26:39.493Z,10.17
2022-10-29T02:27:39.485Z,10.15
2022-10-29T02:28:39.573Z,10.14
2022-10-29T02:29:39.508Z,10.12
2022-10-29T02:30:39.600Z,10.11
2022-10-29T02:31:39.467Z,10.11
2022-10-29T02:32:39.433Z,10.11
2022-10-29T02:33:39.707Z,10.09
2022-10-29T02:34:39.417Z,10.11
2022-10-29T02:35:39.396Z,10.12
2022-10-29T02:36:39.389Z,10.12
2022-10-29T02:37:39.351Z,10.09
2022-10-29T02:38:39.467Z,10.09
2022-10-29T02:39:39.351Z,10.08
2022-10-29T02:40:39.348Z,10.08
2022-10-29T02:41:39.319Z,10.08
2022-10-29T02:42:39.331Z,10.07
2022-10-29T02:43:40.060Z,10.07
2022-10-29T02:44:39.321Z,10.05
2022-10-29T02:45:39.261Z,10.04
2022-10-29T02:46:39.281Z,10.05
2022-10-29T02:47:39.985Z,10.05
2022-10-29T02:48:39.268Z,10.05
2022-10-29T02:49:39.330Z,10.05
2022-10-29T02:50:39.508Z,10.05
2022-10-29T02:51:39.201Z,10.05
2022-10-29T02:52:39.184Z,10.05
2022-10-29T02:53:39.165Z,10.07
2022-10-29T02:54:39.920Z,10.07
2022-10-29T02:55:39.158Z,10.07
2022-10-29T02:56:39.160Z,10.05
2022-10-29T02:57:39.151Z,10.04
2022-10-29T02:58:39.127Z,10.05
2022-10-29T02:59:39.093Z,10.02
2022-10-29T03:00:39.112Z,10.01
2022-10-29T03:01:39.220Z,10.01
2022-10-29T03:02:39.161Z,9.97
2022-10-29T03:03:39.052Z,9.96
2022-10-29T03:04:39.077Z,9.93
2022-10-29T03:05:39.031Z,9.91
2022-10-29T03:06:39.046Z,9.90
2022-10-29T03:07:39.039Z,9.90
2022-10-29T03:08:39.027Z,9.89
2022-10-29T03:09:39.347Z,9.87
2022-10-29T03:10:39.041Z,9.86
2022-10-29T03:11:39.049Z,9.84
2022-10-29T03:12:38.998Z,9.81
2022-10-29T03:13:38.960Z,9.79
2022-10-29T03:14:38.966Z,9.79
2022-10-29T03:15:38.920Z,9.76
2022-10-29T03:16:38.933Z,9.74
2022-10-29T03:17:38.915Z,9.72
2022-10-29T03:18:38.902Z,9.71
2022-10-29T03:19:38.881Z,9.71
2022-10-29T03:20:39.217Z,9.71
2022-10-29T03:21:38.852Z,9.71
2022-10-29T03:22:38.881Z,9.72
2022-10-29T03:23:38.822Z,9.76
2022-10-29T03:24:38.836Z,9.76
2022-10-29T03:25:38.816Z,9.75
2022-10-29T03:26:38.823Z,9.74
2022-10-29T03:27:38.790Z,9.74
2022-10-29T03:28:38.854Z,9.71
2022-10-29T03:29:39.155Z,9.69
2022-10-29T03:30:39.277Z,9.66
2022-10-29T03:31:38.876Z,9.60
2022-10-29T03:32:38.759Z,9.57
2022-10-29T03:33:39.086Z,9.57
2022-10-29T03:34:38.711Z,9.54
2022-10-29T03:35:38.742Z,9.53
2022-10-29T03:36:38.699Z,9.51
2022-10-29T03:37:38.653Z,9.50
2022-10-29T03:38:38.661Z,9.48
2022-10-29T03:39:38.659Z,9.48
2022-10-29T03:40:38.660Z,9.46
2022-10-29T03:41:38.610Z,9.46
2022-10-29T03:42:38.609Z,9.43
2022-10-29T03:43:38.629Z,9.43
2022-10-29T03:44:38.600Z,9.46
2022-10-29T03:45:38.570Z,9.46
2022-10-29T03:46:38.597Z,9.46
2022-10-29T03:47:38.541Z,9.42
2022-10-29T03:48:38.547Z,9.40
2022-10-29T03:49:38.559Z,9.39
2022-10-29T03:50:38.550Z,9.36
2022-10-29T03:51:38.598Z,9.36
2022-10-29T03:52:38.608Z,9.35
2022-10-29T03:53:38.490Z,9.33
2022-10-29T03:54:38.503Z,9.32
2022-10-29T03:55:38.549Z,9.31
2022-10-29T03:56:38.470Z,9.29
2022-10-29T03:57:38.429Z,9.28
2022-10-29T03:58:38.449Z,9.28
2022-10-29T03:59:38.409Z,9.28
2022-10-29T04:00:38.405Z,9.26
2022-10-29T04:01:38.456Z,9.28
2022-10-29T04:02:39.239Z,9.26
2022-10-29T04:03:38.370Z,9.28
2022-10-29T04:04:38.369Z,9.24
2022-10-29T04:05:38.351Z,9.28
2022-10-29T04:06:38.341Z,9.26
2022-10-29T04:07:38.429Z,9.24
2022-10-29T04:08:39.149Z,9.26
2022-10-29T04:09:38.300Z,9.31
2022-10-29T04:10:39.061Z,9.32
2022-10-29T04:11:38.637Z,9.32
2022-10-29T04:12:38.530Z,9.31
2022-10-29T04:13:38.277Z,9.29
2022-10-29T04:14:42.869Z,9.29
2022-10-29T04:15:39.239Z,9.28
2022-10-29T04:16:38.288Z,9.26
2022-10-29T04:17:38.263Z,9.23
2022-10-29T04:18:38.268Z,9.23
2022-10-29T04:19:38.280Z,9.23
2022-10-29T04:21:05.759Z,9.26
2022-10-29T04:28:41.327Z,9.21
2022-10-29T04:28:43.630Z,9.20
2022-10-29T04:29:39.093Z,9.20
2022-10-29T04:30:38.071Z,9.20
2022-10-29T04:31:38.075Z,9.20
2022-10-29T04:32:38.172Z,9.20
2022-10-29T04:33:38.027Z,9.20
2022-10-29T04:34:38.029Z,9.20
2022-10-29T04:35:38.036Z,9.20
2022-10-29T04:36:37.980Z,9.21
2022-10-29T04:37:37.978Z,9.20
2022-10-29T04:38:37.972Z,9.20
2022-10-29T04:39:37.965Z,9.21
2022-10-29T04:40:37.943Z,9.21
2022-10-29T04:41:38.182Z,9.24
2022-10-29T04:42:37.907Z,9.26
2022-10-29T04:43:37.920Z,9.28
2022-10-29T04:44:37.898Z,9.29
2022-10-29T04:45:37.956Z,9.31
2022-10-29T04:46:37.879Z,9.31
2022-10-29T04:47:37.877Z,9.33
2022-10-29T04:48:37.870Z,9.36
2022-10-29T04:49:37.849Z,9.38
2022-10-29T04:50:37.828Z,9.40
2022-10-29T04:51:37.903Z,9.42
2022-10-29T04:52:37.889Z,9.47
2022-10-29T04:53:37.931Z,9.48
2022-10-29T04:54:37.791Z,9.51
2022-10-29T04:55:37.805Z,9.51
2022-10-29T04:56:37.776Z,9.51
2022-10-29T04:57:37.768Z,9.53
2022-10-29T04:58:37.772Z,9.54
2022-10-29T04:59:37.728Z,9.54
2022-10-29T05:00:37.768Z,9.56
2022-10-29T05:01:37.758Z,9.57
2022-10-29T05:02:37.687Z,9.58
2022-10-29T05:03:38.166Z,9.58
2022-10-29T05:04:37.671Z,9.60
2022-10-29T05:05:37.678Z,9.61
2022-10-29T05:06:37.637Z,9.64
2022-10-29T05:07:37.636Z,9.61
2022-10-29T05:08:37.621Z,9.64
2022-10-29T05:09:37.629Z,9.61
2022-10-29T05:10:37.589Z,9.61
2022-10-29T05:11:37.628Z,9.64
2022-10-29T05:12:37.816Z,9.64
2022-10-29T05:13:37.940Z,9.64
2022-10-29T05:14:37.935Z,9.65
2022-10-29T05:15:37.561Z,9.65
2022-10-29T05:16:37.526Z,9.64
2022-10-29T05:17:37.529Z,9.61
2022-10-29T05:18:37.508Z,9.64
2022-10-29T05:19:37.524Z,9.64
2022-10-29T05:20:37.496Z,9.61
2022-10-29T05:21:37.475Z,9.64
2022-10-29T05:22:37.490Z,9.66
2022-10-29T05:23:37.459Z,9.69
2022-10-29T05:24:37.441Z,9.69
2022-10-29T05:25:37.434Z,9.71
2022-10-29T05:26:37.419Z,9.75
2022-10-29T05:27:37.418Z,9.76
2022-10-29T05:28:37.385Z,9.78
2022-10-29T05:29:37.405Z,9.81
2022-10-29T05:30:37.363Z,9.83
2022-10-29T05:31:37.377Z,9.87
2022-10-29T05:32:37.351Z,9.89
2022-10-29T05:33:37.366Z,9.89
2022-10-29T05:34:39.445Z,9.89
2022-10-29T05:35:37.339Z,9.91
2022-10-29T05:36:37.301Z,9.93
2022-10-29T05:37:37.320Z,9.94
2022-10-29T05:38:37.273Z,9.96
2022-10-29T05:39:37.275Z,9.97
2022-10-29T05:40:37.278Z,10.01
2022-10-29T05:41:37.275Z,10.01
2022-10-29T05:42:37.239Z,10.01
2022-10-29T05:43:37.236Z,10.04
2022-10-29T05:44:37.277Z,10.04
2022-10-29T05:45:37.217Z,10.07
2022-10-29T05:46:37.204Z,10.08
2022-10-29T05:47:37.936Z,10.09
2022-10-29T05:48:37.159Z,10.09
2022-10-29T05:49:37.164Z,10.09
2022-10-29T05:50:37.144Z,10.09
2022-10-29T05:51:37.136Z,10.11
2022-10-29T05:52:37.112Z,10.11
2022-10-29T05:53:37.289Z,10.09
2022-10-29T05:54:37.593Z,10.11
2022-10-29T05:55:37.094Z,10.09
2022-10-29T05:56:37.078Z,10.11
2022-10-29T05:57:37.089Z,10.12
2022-10-29T05:58:37.819Z,10.12
2022-10-29T05:59:37.036Z,10.15
2022-10-29T06:00:37.010Z,10.15
2022-10-29T06:01:37.119Z,10.17
2022-10-29T06:02:37.144Z,10.17
2022-10-29T06:03:36.998Z,10.17
2022-10-29T06:04:36.987Z,10.17
2022-10-29T06:05:36.977Z,10.18
2022-10-29T06:06:37.027Z,10.20
2022-10-29T06:07:36.975Z,10.23
2022-10-29T06:08:36.934Z,10.25
2022-10-29T06:09:36.925Z,10.25
2022-10-29T06:10:37.208Z,10.23
2022-10-29T06:11:36.896Z,10.26
2022-10-29T06:12:36.935Z,10.26
2022-10-29T06:13:36.912Z,10.26
2022-10-29T06:14:37.186Z,10.27
2022-10-29T06:15:36.855Z,10.29
2022-10-29T06:16:36.845Z,10.29
2022-10-29T06:17:36.826Z,10.30
2022-10-29T06:18:36.875Z,10.33
2022-10-29T06:19:36.862Z,10.30
2022-10-29T06:20:36.786Z,10.32
2022-10-29T06:21:36.783Z,10.33
2022-10-29T06:22:37.041Z,10.34
2022-10-29T06:23:36.776Z,10.34
2022-10-29T06:24:36.759Z,10.36
2022-10-29T06:25:36.743Z,10.34
2022-10-29T06:26:36.741Z,10.38
2022-10-29T06:27:36.726Z,10.40
2022-10-29T06:28:36.719Z,10.40
2022-10-29T06:29:36.694Z,10.42
2022-10-29T06:30:36.721Z,10.42
2022-10-29T06:31:36.678Z,10.44
2022-10-29T06:32:36.645Z,10.45
2022-10-29T06:33:36.664Z,10.45
2022-10-29T06:34:36.965Z,10.47
2022-10-29T06:35:36.966Z,10.51
2022-10-29T06:36:36.596Z,10.51
2022-10-29T06:37:36.603Z,10.52
2022-10-29T06:38:36.592Z,10.53
2022-10-29T06:39:36.575Z,10.56
2022-10-29T06:40:36.662Z,10.59
2022-10-29T06:41:36.555Z,10.60
2022-10-29T06:42:36.532Z,10.61
2022-10-29T06:43:36.573Z,10.63
2022-10-29T06:44:36.522Z,10.66
2022-10-29T06:45:36.524Z,10.66
2022-10-29T06:46:36.513Z,10.68
2022-10-29T06:47:36.515Z,10.71
2022-10-29T06:48:36.474Z,10.71
2022-10-29T06:49:36.457Z,10.74
2022-10-29T06:50:36.445Z,10.74
2022-10-29T06:51:36.466Z,10.78
2022-10-29T06:52:36.414Z,10.79
2022-10-29T06:53:36.416Z,10.82
2022-10-29T06:54:36.411Z,10.85
2022-10-29T06:55:36.486Z,10.88
2022-10-29T06:56:36.507Z,10.89
2022-10-29T06:57:36.379Z,10.92
2022-10-29T06:58:36.378Z,10.96
2022-10-29T06:59:36.343Z,11.00
2022-10-29T07:00:36.420Z,11.03
2022-10-29T07:01:36.401Z,11.06
2022-10-29T07:02:36.408Z,11.09
2022-10-29T07:03:36.324Z,11.14
2022-10-29T07:04:36.289Z,11.15
2022-10-29T07:05:36.341Z,11.18
2022-10-29T07:06:36.267Z,11.22
2022-10-29T07:07:36.264Z,11.24
2022-10-29T07:08:36.264Z,11.28
2022-10-29T07:09:36.283Z,11.29
2022-10-29T07:10:36.214Z,11.35
2022-10-29T07:11:36.232Z,11.37
2022-10-29T07:12:36.196Z,11.40
2022-10-29T07:13:36.217Z,11.43
2022-10-29T07:14:36.326Z,11.46
2022-10-29T07:15:36.334Z,11.51
2022-10-29T07:16:36.224Z,11.51
2022-10-29T07:17:36.157Z,11.54
2022-10-29T07:18:36.249Z,11.55
2022-10-29T07:19:36.449Z,11.57
2022-10-29T07:20:36.249Z,11.58
2022-10-29T07:21:36.166Z,11.62
2022-10-29T07:22:36.074Z,11.64
2022-10-29T07:23:36.081Z,11.67
2022-10-29T07:24:36.069Z,11.70
2022-10-29T07:25:36.107Z,11.75
2022-10-29T07:26:36.025Z,11.76
2022-10-29T07:27:36.238Z,11.79
2022-10-29T07:28:36.013Z,11.82
2022-10-29T07:29:36.019Z,11.85
2022-10-29T07:30:35.995Z,11.88
2022-10-29T07:31:35.993Z,11.90
2022-10-29T07:32:35.962Z,11.94
2022-10-29T07:33:35.963Z,11.95
2022-10-29T07:34:35.963Z,11.98
2022-10-29T07:35:36.254Z,11.99
2022-10-29T07:36:36.254Z,12.01
2022-10-29T07:37:36.292Z,12.04
2022-10-29T07:38:35.894Z,12.05
2022-10-29T07:39:35.897Z,12.07
2022-10-29T07:40:35.902Z,12.07
2022-10-29T07:41:35.891Z,12.10
2022-10-29T07:42:35.860Z,12.12
2022-10-29T07:43:35.871Z,12.13
2022-10-29T07:44:35.835Z,12.14
2022-10-29T07:45:35.849Z,12.17
2022-10-29T07:46:35.845Z,12.20
2022-10-29T07:47:35.834Z,12.21
2022-10-29T07:48:35.795Z,12.27
2022-10-29T07:49:35.805Z,12.29
2022-10-29T07:50:35.759Z,12.34
2022-10-29T07:51:35.776Z,12.37
2022-10-29T07:52:35.754Z,12.39
2022-10-29T07:53:35.768Z,12.42
2022-10-29T07:54:35.730Z,12.46
2022-10-29T07:55:35.746Z,12.50
2022-10-29T07:56:36.187Z,12.53
2022-10-29T07:57:35.706Z,12.54
2022-10-29T07:58:35.684Z,12.57
2022-10-29T07:59:35.675Z,12.59
2022-10-29T08:00:35.656Z,12.62
2022-10-29T08:01:35.784Z,12.64
2022-10-29T08:02:35.633Z,12.68
2022-10-29T08:03:35.670Z,12.74
2022-10-29T08:04:35.636Z,12.77
2022-10-29T08:05:35.606Z,12.83
2022-10-29T08:06:35.604Z,12.89
2022-10-29T08:07:35.585Z,12.93
2022-10-29T08:08:35.574Z,13.00
2022-10-29T08:09:35.566Z,13.05
2022-10-29T08:10:35.547Z,13.08
2022-10-29T08:11:35.598Z,13.14
2022-10-29T08:12:35.526Z,13.20
2022-10-29T08:13:35.514Z,13.26
2022-10-29T08:14:35.531Z,13.29
2022-10-29T08:15:35.493Z,13.38
2022-10-29T08:16:36.015Z,13.44
2022-10-29T08:17:35.626Z,13.46
2022-10-29T08:18:35.451Z,13.52
2022-10-29T08:19:35.503Z,13.59
2022-10-29T08:20:35.433Z,13.63
2022-10-29T08:21:35.432Z,13.70
2022-10-29T08:22:35.448Z,13.75
2022-10-29T08:23:35.372Z,13.81
2022-10-29T08:24:35.395Z,13.85
2022-10-29T08:25:35.353Z,13.89
2022-10-29T08:26:35.377Z,13.95
2022-10-29T08:27:35.328Z,13.97
2022-10-29T08:28:35.976Z,14.02
2022-10-29T08:29:35.335Z,14.07
2022-10-29T08:30:35.336Z,14.14
2022-10-29T08:31:35.320Z,14.15
2022-10-29T08:32:35.742Z,14.20
2022-10-29T08:33:35.263Z,14.24
2022-10-29T08:34:35.262Z,14.28
2022-10-29T08:35:35.254Z,14.33
2022-10-29T08:36:35.262Z,14.37
2022-10-29T08:37:35.257Z,14.42
2022-10-29T08:38:36.007Z,14.45
2022-10-29T08:39:35.191Z,14.50
2022-10-29T08:40:35.202Z,14.52
2022-10-29T08:41:35.162Z,14.58
2022-10-29T08:42:35.191Z,14.64
2022-10-29T08:43:35.142Z,14.69
2022-10-29T08:44:35.878Z,14.75
2022-10-29T08:45:35.136Z,14.78
2022-10-29T08:46:35.148Z,14.81
2022-10-29T08:47:35.132Z,14.88
2022-10-29T08:48:35.142Z,14.94
2022-10-29T08:49:35.062Z,14.96
2022-10-29T08:50:35.074Z,15.01
2022-10-29T08:51:35.045Z,15.03
2022-10-29T08:52:35.193Z,15.09
2022-10-29T08:53:35.062Z,15.13
2022-10-29T08:54:35.040Z,15.16
2022-10-29T08:55:35.029Z,15.19
2022-10-29T08:56:35.804Z,15.21
2022-10-29T08:57:35.881Z,15.25
2022-10-29T08:58:35.015Z,15.27
2022-10-29T08:59:34.985Z,15.31
2022-10-29T09:00:34.969Z,15.31
2022-10-29T09:01:35.084Z,15.34
2022-10-29T09:02:34.951Z,15.35
2022-10-29T09:03:34.933Z,15.36
2022-10-29T09:04:34.961Z,15.36
2022-10-29T09:05:34.903Z,15.38
2022-10-29T09:06:34.967Z,15.39
2022-10-29T09:07:34.865Z,15.43
2022-10-29T09:08:34.873Z,15.44
2022-10-29T09:09:34.867Z,15.49
2022-10-29T09:10:34.881Z,15.51
2022-10-29T09:11:34.827Z,15.54
2022-10-29T09:12:34.830Z,15.59
2022-10-29T09:13:34.813Z,15.64
2022-10-29T09:14:34.831Z,15.68
2022-10-29T09:15:34.784Z,15.74
2022-10-29T09:16:34.823Z,15.78
2022-10-29T09:17:34.802Z,15.83
2022-10-29T09:18:34.823Z,15.89
2022-10-29T09:19:34.920Z,15.92
2022-10-29T09:20:34.803Z,15.93
2022-10-29T09:21:34.784Z,15.94
2022-10-29T09:22:34.721Z,15.97
2022-10-29T09:23:34.685Z,15.97
2022-10-29T09:24:34.696Z,15.97
2022-10-29T09:25:34.696Z,15.96
2022-10-29T09:26:34.683Z,15.97
2022-10-29T09:27:34.672Z,15.97
2022-10-29T09:28:34.676Z,15.96
2022-10-29T09:29:34.625Z,15.97
2022-10-29T09:30:34.642Z,16.00
2022-10-29T09:31:34.625Z,16.00
2022-10-29T09:32:34.599Z,16.01
2022-10-29T09:33:34.576Z,16.01
2022-10-29T09:34:34.661Z,16.04
2022-10-29T09:35:34.553Z,16.07
2022-10-29T09:36:34.645Z,16.08
2022-10-29T09:37:34.562Z,16.11
2022-10-29T09:38:34.744Z,16.14
2022-10-29T09:39:34.755Z,16.17
2022-10-29T09:40:34.506Z,16.23
2022-10-29T09:41:34.516Z,16.27
2022-10-29T09:42:34.504Z,16.33
2022-10-29T09:43:34.490Z,16.34
2022-10-29T09:44:34.453Z,16.39
2022-10-29T09:45:34.460Z,16.41
2022-10-29T09:46:34.440Z,16.43
2022-10-29T09:47:34.418Z,16.46
2022-10-29T09:48:34.423Z,16.46
2022-10-29T09:49:34.430Z,16.49
2022-10-29T09:50:34.395Z,16.53
2022-10-29T09:51:34.374Z,16.57
2022-10-29T09:52:34.462Z,16.61
2022-10-29T09:53:34.354Z,16.64
2022-10-29T09:54:34.357Z,16.68
2022-10-29T09:55:34.324Z,16.75
2022-10-29T09:56:34.348Z,16.79
2022-10-29T09:57:34.347Z,16.85
2022-10-29T09:58:34.316Z,16.91
2022-10-29T09:59:34.373Z,16.96
2022-10-29T10:00:34.285Z,17.00
2022-10-29T10:01:34.302Z,17.04
2022-10-29T10:02:34.281Z,17.07
2022-10-29T10:03:34.235Z,17.15
2022-10-29T10:04:34.264Z,17.23
2022-10-29T10:05:34.225Z,17.30
2022-10-29T10:06:37.657Z,17.36
2022-10-29T10:07:35.200Z,17.37
2022-10-29T10:08:34.193Z,17.41
2022-10-29T10:09:34.167Z,17.44
2022-10-29T10:10:34.173Z,17.48
2022-10-29T10:11:34.156Z,17.51
2022-10-29T10:12:34.146Z,17.54
2022-10-29T10:13:34.125Z,17.54
2022-10-29T10:14:34.146Z,17.56
2022-10-29T10:15:34.116Z,17.56
2022-10-29T10:16:34.302Z,17.59
2022-10-29T10:17:34.093Z,17.62
2022-10-29T10:18:34.108Z,17.63
2022-10-29T10:19:34.323Z,17.64
2022-10-29T10:20:34.319Z,17.68
2022-10-29T10:21:34.019Z,17.70
2022-10-29T10:22:34.032Z,17.74
2022-10-29T10:23:34.015Z,17.78
2022-10-29T10:24:34.006Z,17.82
2022-10-29T10:25:34.027Z,17.90
2022-10-29T10:26:33.981Z,17.97
2022-10-29T10:27:33.958Z,18.03
2022-10-29T10:28:33.972Z,18.10
2022-10-29T10:29:33.936Z,18.17
2022-10-29T10:30:33.985Z,18.23
2022-10-29T10:31:33.919Z,18.29
2022-10-29T10:32:33.919Z,18.41
2022-10-29T10:33:33.915Z,18.48
2022-10-29T10:34:33.963Z,18.57
2022-10-29T10:35:33.882Z,18.67
2022-10-29T10:36:33.877Z,18.82
2022-10-29T10:37:33.836Z,18.95
2022-10-29T10:38:33.851Z,19.07
2022-10-29T10:39:34.147Z,19.14
2022-10-29T10:40:34.258Z,19.31
2022-10-29T10:41:34.277Z,19.43
2022-10-29T10:42:33.799Z,19.56
2022-10-29T10:43:33.776Z,19.69
2022-10-29T10:44:33.792Z,19.83
2022-10-29T10:45:33.763Z,19.92
2022-10-29T10:46:33.768Z,20.02
2022-10-29T10:47:33.727Z,20.14
2022-10-29T10:49:33.696Z,20.28
2022-10-29T10:50:33.743Z,20.31
2022-10-29T10:51:33.712Z,20.35
2022-10-29T10:52:33.739Z,20.38
2022-10-29T10:53:33.770Z,20.43
2022-10-29T10:54:33.793Z,20.48
2022-10-29T10:55:33.697Z,20.51
2022-10-29T10:56:33.651Z,20.52
2022-10-29T10:57:33.627Z,20.55
2022-10-29T10:58:33.649Z,20.57
2022-10-29T10:59:34.277Z,20.59
2022-10-29T11:00:34.289Z,20.62
2022-10-29T11:01:33.734Z,20.66
2022-10-29T11:02:33.655Z,20.66
2022-10-29T11:03:33.587Z,20.70
2022-10-29T11:04:33.569Z,20.73
2022-10-29T11:05:33.542Z,20.77
2022-10-29T11:06:33.560Z,20.82
2022-10-29T11:07:33.510Z,20.87
2022-10-29T11:08:33.534Z,20.89
2022-10-29T11:09:33.512Z,20.92
2022-10-29T11:10:33.485Z,20.95
2022-10-29T11:11:33.470Z,20.99
2022-10-29T11:12:33.465Z,20.99
2022-10-29T11:13:33.446Z,21.01
2022-10-29T11:14:33.449Z,21.03
2022-10-29T11:15:33.420Z,21.03
2022-10-29T11:16:33.420Z,21.03
2022-10-29T11:17:33.400Z,21.03
2022-10-29T11:18:33.389Z,21.04
2022-10-29T11:19:35.889Z,21.10
2022-10-29T11:20:33.820Z,21.13
2022-10-29T11:21:33.821Z,21.19
2022-10-29T11:22:33.864Z,21.24
2022-10-29T11:23:33.312Z,21.29
2022-10-29T11:24:33.337Z,21.31
2022-10-29T11:25:33.325Z,21.38
2022-10-29T11:26:33.310Z,21.49
2022-10-29T11:27:33.281Z,21.53
2022-10-29T11:28:34.068Z,21.58
2022-10-29T11:29:33.250Z,21.62
2022-10-29T11:30:33.260Z,21.67
2022-10-29T11:31:33.246Z,21.65
2022-10-29T11:32:33.252Z,21.62
2022-10-29T11:33:33.213Z,21.58
2022-10-29T11:34:33.212Z,21.50
2022-10-29T11:35:33.207Z,21.46
2022-10-29T11:36:33.323Z,21.42
2022-10-29T11:37:33.192Z,21.40
2022-10-29T11:38:33.193Z,21.37
2022-10-29T11:39:33.145Z,21.38
2022-10-29T11:40:33.151Z,21.42
2022-10-29T11:41:33.234Z,21.46
2022-10-29T11:42:33.243Z,21.50
2022-10-29T11:43:33.101Z,21.50
2022-10-29T11:44:33.264Z,21.52
2022-10-29T11:45:33.119Z,21.53
2022-10-29T11:46:33.132Z,21.56
2022-10-29T11:47:33.117Z,21.58
2022-10-29T11:48:33.190Z,21.59
2022-10-29T11:49:33.048Z,21.58
2022-10-29T11:50:33.021Z,21.58
2022-10-29T11:51:33.037Z,21.61
2022-10-29T11:52:35.601Z,21.62
2022-10-29T11:53:32.974Z,21.62
2022-10-29T11:54:32.994Z,21.65
2022-10-29T11:55:32.992Z,21.67
2022-10-29T11:56:33.012Z,21.68
2022-10-29T11:57:32.923Z,21.68
2022-10-29T11:58:36.656Z,21.69
2022-10-29T11:59:33.936Z,21.69
2022-10-29T12:00:32.913Z,21.71
2022-10-29T12:01:33.280Z,21.71
2022-10-29T12:02:33.085Z,21.71
2022-10-29T12:03:32.947Z,21.71
2022-10-29T12:04:32.902Z,21.69
2022-10-29T12:05:32.875Z,21.72
2022-10-29T12:06:32.836Z,21.75
2022-10-29T12:07:32.833Z,21.80
2022-10-29T12:08:32.874Z,21.83
2022-10-29T12:09:32.888Z,21.88
2022-10-29T12:10:32.815Z,21.91
2022-10-29T12:11:32.817Z,21.94
2022-10-29T12:12:32.778Z,21.94
2022-10-29T12:13:33.524Z,21.99
2022-10-29T12:14:32.764Z,21.99
2022-10-29T12:15:32.740Z,21.99
2022-10-29T12:16:32.728Z,22.00
2022-10-29T12:17:32.746Z,22.03
2022-10-29T12:18:32.718Z,22.06
2022-10-29T12:19:32.698Z,22.09
2022-10-29T12:20:32.760Z,22.15
2022-10-29T12:21:32.669Z,22.18
2022-10-29T12:22:33.014Z,22.22
2022-10-29T12:23:33.134Z,22.25
2022-10-29T12:24:32.654Z,22.25
2022-10-29T12:25:32.677Z,22.25
2022-10-29T12:26:32.623Z,22.27
2022-10-29T12:27:32.623Z,22.28
2022-10-29T12:28:32.601Z,22.33
2022-10-29T12:29:32.579Z,22.31
2022-10-29T12:30:32.596Z,22.30
2022-10-29T12:31:32.556Z,22.31
2022-10-29T12:32:32.594Z,22.33
2022-10-29T12:33:32.544Z,22.35
2022-10-29T12:34:32.527Z,22.35
2022-10-29T12:35:32.549Z,22.35
2022-10-29T12:36:32.522Z,22.37
2022-10-29T12:37:32.515Z,22.37
2022-10-29T12:38:32.480Z,22.37
2022-10-29T12:39:32.517Z,22.36
2022-10-29T12:40:32.449Z,22.37
2022-10-29T12:41:32.509Z,22.35
2022-10-29T12:42:32.948Z,22.37
2022-10-29T12:43:32.958Z,22.37
2022-10-29T12:44:32.966Z,22.42
2022-10-29T12:45:32.440Z,22.47
2022-10-29T12:46:32.391Z,22.49
2022-10-29T12:47:32.395Z,22.54
2022-10-29T12:48:32.382Z,22.57
2022-10-29T12:49:32.407Z,22.62
2022-10-29T12:50:32.342Z,22.65
2022-10-29T12:51:33.162Z,22.65
2022-10-29T12:52:32.367Z,22.65
2022-10-29T12:53:32.319Z,22.67
2022-10-29T12:54:32.308Z,22.68
2022-10-29T12:55:32.383Z,22.67
2022-10-29T12:56:32.272Z,22.67
2022-10-29T12:57:32.304Z,22.67
2022-10-29T12:58:32.274Z,22.65
2022-10-29T12:59:32.291Z,22.62
2022-10-29T13:00:32.258Z,22.64
2022-10-29T13:02:05.352Z,22.64
2022-10-29T13:02:33.378Z,22.65
2022-10-29T13:03:32.432Z,22.68
2022-10-29T13:04:32.199Z,22.70
2022-10-29T13:05:32.190Z,22.68
2022-10-29T13:06:32.190Z,22.65
2022-10-29T13:07:32.212Z,22.65